sensor_id;sensor_type;location;lat;lon;timestamp;temperature;humidity
17236;DHT22;8734;59.272;17.780;2023-07-30T00:01:16;15.30;99.90
17236;DHT22;8734;59.272;17.780;2023-07-30T00:03:45;15.20;99.90
17236;DHT22;8734;59.272;17.780;2023-07-30T00:06:14;15.20;99.90
17236;DHT22;8734;59.272;17.780;2023-07-30T00:08:43;15.20;99.90
17236;DHT22;8734;59.272;17.780;2023-07-30T00:11:11;15.20;99.90
17236;DHT22;8734;59.272;17.780;2023-07-30T00:13:39;15.20;99.90
17236;DHT22;8734;59.272;17.780;2023-07-30T00:16:08;15.20;99.90
17236;DHT22;8734;59.272;17.780;2023-07-30T00:18:36;15.30;99.90
17236;DHT22;8734;59.272;17.780;2023-07-30T00:21:04;15.20;99.90
17236;DHT22;8734;59.272;17.780;2023-07-30T00:23:34;15.20;99.90
17236;DHT22;8734;59.272;17.780;2023-07-30T00:26:02;15.20;99.90
17236;DHT22;8734;59.272;17.780;2023-07-30T00:28:31;15.20;99.90
17236;DHT22;8734;59.272;17.780;2023-07-30T00:30:59;15.20;99.90
17236;DHT22;8734;59.272;17.780;2023-07-30T00:33:28;15.20;99.90
17236;DHT22;8734;59.272;17.780;2023-07-30T00:35:56;15.20;99.90
17236;DHT22;8734;59.272;17.780;2023-07-30T00:38:24;15.30;99.90
17236;DHT22;8734;59.272;17.780;2023-07-30T00:40:54;15.20;99.90
17236;DHT22;8734;59.272;17.780;2023-07-30T00:43:23;15.30;99.90
17236;DHT22;8734;59.272;17.780;2023-07-30T00:45:51;15.30;99.90
17236;DHT22;8734;59.272;17.780;2023-07-30T00:48:20;15.20;99.90
17236;DHT22;8734;59.272;17.780;2023-07-30T00:50:48;15.20;99.90
17236;DHT22;8734;59.272;17.780;2023-07-30T00:53:18;15.20;99.90
17236;DHT22;8734;59.272;17.780;2023-07-30T00:55:50;15.20;99.90
17236;DHT22;8734;59.272;17.780;2023-07-30T00:58:20;15.10;99.90
17236;DHT22;8734;59.272;17.780;2023-07-30T01:00:50;15.10;99.90
17236;DHT22;8734;59.272;17.780;2023-07-30T01:03:20;15.10;99.90
17236;DHT22;8734;59.272;17.780;2023-07-30T01:05:48;15.10;99.90
17236;DHT22;8734;59.272;17.780;2023-07-30T01:08:16;15.00;99.90
17236;DHT22;8734;59.272;17.780;2023-07-30T01:10:45;15.00;99.90
17236;DHT22;8734;59.272;17.780;2023-07-30T01:13:15;15.00;99.90
17236;DHT22;8734;59.272;17.780;2023-07-30T01:15:46;14.90;99.90
17236;DHT22;8734;59.272;17.780;2023-07-30T01:18:15;14.90;99.90
17236;DHT22;8734;59.272;17.780;2023-07-30T01:20:43;14.80;99.90
17236;DHT22;8734;59.272;17.780;2023-07-30T01:23:13;14.80;99.90
17236;DHT22;8734;59.272;17.780;2023-07-30T01:25:42;14.80;99.90
17236;DHT22;8734;59.272;17.780;2023-07-30T01:28:16;14.80;99.90
17236;DHT22;8734;59.272;17.780;2023-07-30T01:30:46;14.80;99.90
17236;DHT22;8734;59.272;17.780;2023-07-30T01:33:15;14.70;99.90
17236;DHT22;8734;59.272;17.780;2023-07-30T01:35:44;14.80;99.90
17236;DHT22;8734;59.272;17.780;2023-07-30T01:38:14;14.80;99.90
17236;DHT22;8734;59.272;17.780;2023-07-30T01:40:42;14.80;99.90
17236;DHT22;8734;59.272;17.780;2023-07-30T01:43:11;14.80;99.90
17236;DHT22;8734;59.272;17.780;2023-07-30T01:45:39;14.80;99.90
17236;DHT22;8734;59.272;17.780;2023-07-30T01:48:08;14.80;99.90
17236;DHT22;8734;59.272;17.780;2023-07-30T01:50:36;14.80;99.90
17236;DHT22;8734;59.272;17.780;2023-07-30T01:53:04;14.80;99.90
17236;DHT22;8734;59.272;17.780;2023-07-30T01:55:34;14.80;99.90
17236;DHT22;8734;59.272;17.780;2023-07-30T01:58:02;14.80;99.90
17236;DHT22;8734;59.272;17.780;2023-07-30T02:00:31;14.90;99.90
17236;DHT22;8734;59.272;17.780;2023-07-30T02:02:59;14.90;99.90
17236;DHT22;8734;59.272;17.780;2023-07-30T02:05:27;14.80;99.90
17236;DHT22;8734;59.272;17.780;2023-07-30T02:07:55;14.80;99.90
17236;DHT22;8734;59.272;17.780;2023-07-30T02:10:25;14.70;99.90
17236;DHT22;8734;59.272;17.780;2023-07-30T02:12:54;14.70;99.90
17236;DHT22;8734;59.272;17.780;2023-07-30T02:15:23;14.70;99.90
17236;DHT22;8734;59.272;17.780;2023-07-30T02:17:51;14.70;99.90
17236;DHT22;8734;59.272;17.780;2023-07-30T02:20:19;14.80;99.90
17236;DHT22;8734;59.272;17.780;2023-07-30T02:22:48;14.70;99.90
17236;DHT22;8734;59.272;17.780;2023-07-30T02:25:16;14.70;99.90
17236;DHT22;8734;59.272;17.780;2023-07-30T02:27:46;14.80;99.90
17236;DHT22;8734;59.272;17.780;2023-07-30T02:30:16;14.80;99.90
17236;DHT22;8734;59.272;17.780;2023-07-30T02:32:45;14.80;99.90
17236;DHT22;8734;59.272;17.780;2023-07-30T02:35:13;14.90;99.90
17236;DHT22;8734;59.272;17.780;2023-07-30T02:37:41;14.90;99.90
17236;DHT22;8734;59.272;17.780;2023-07-30T02:40:11;15.00;99.90
17236;DHT22;8734;59.272;17.780;2023-07-30T02:42:39;15.00;99.90
17236;DHT22;8734;59.272;17.780;2023-07-30T02:45:08;15.00;99.90
17236;DHT22;8734;59.272;17.780;2023-07-30T02:47:37;15.10;99.90
17236;DHT22;8734;59.272;17.780;2023-07-30T02:50:06;15.10;99.90
17236;DHT22;8734;59.272;17.780;2023-07-30T02:52:35;15.10;99.90
17236;DHT22;8734;59.272;17.780;2023-07-30T02:55:03;15.10;99.90
17236;DHT22;8734;59.272;17.780;2023-07-30T02:57:32;15.20;99.90
17236;DHT22;8734;59.272;17.780;2023-07-30T03:00:00;15.30;99.90
17236;DHT22;8734;59.272;17.780;2023-07-30T03:02:30;15.30;99.90
17236;DHT22;8734;59.272;17.780;2023-07-30T03:05:00;15.30;99.90
17236;DHT22;8734;59.272;17.780;2023-07-30T03:07:29;15.30;99.90
17236;DHT22;8734;59.272;17.780;2023-07-30T03:09:57;15.30;99.90
17236;DHT22;8734;59.272;17.780;2023-07-30T03:12:25;15.40;99.90
17236;DHT22;8734;59.272;17.780;2023-07-30T03:14:53;15.40;99.90
17236;DHT22;8734;59.272;17.780;2023-07-30T03:17:22;15.40;99.90
17236;DHT22;8734;59.272;17.780;2023-07-30T03:19:50;15.40;99.90
17236;DHT22;8734;59.272;17.780;2023-07-30T03:22:20;15.40;99.90
17236;DHT22;8734;59.272;17.780;2023-07-30T03:24:48;15.50;99.90
17236;DHT22;8734;59.272;17.780;2023-07-30T03:27:17;15.50;99.90
17236;DHT22;8734;59.272;17.780;2023-07-30T03:29:45;15.50;99.90
17236;DHT22;8734;59.272;17.780;2023-07-30T03:32:13;15.50;99.90
17236;DHT22;8734;59.272;17.780;2023-07-30T03:34:41;15.60;99.90
17236;DHT22;8734;59.272;17.780;2023-07-30T03:37:10;15.60;99.90
17236;DHT22;8734;59.272;17.780;2023-07-30T03:39:39;15.60;99.90
17236;DHT22;8734;59.272;17.780;2023-07-30T03:42:07;15.60;99.90
17236;DHT22;8734;59.272;17.780;2023-07-30T03:44:36;15.70;99.90
17236;DHT22;8734;59.272;17.780;2023-07-30T03:47:04;15.70;99.90
17236;DHT22;8734;59.272;17.780;2023-07-30T03:49:32;15.70;99.90
17236;DHT22;8734;59.272;17.780;2023-07-30T03:52:01;15.70;99.90
17236;DHT22;8734;59.272;17.780;2023-07-30T03:54:29;15.80;99.90
17236;DHT22;8734;59.272;17.780;2023-07-30T03:56:58;15.90;99.90
17236;DHT22;8734;59.272;17.780;2023-07-30T03:59:27;16.00;99.90
17236;DHT22;8734;59.272;17.780;2023-07-30T04:01:56;16.00;99.90
17236;DHT22;8734;59.272;17.780;2023-07-30T04:04:24;16.10;99.90
17236;DHT22;8734;59.272;17.780;2023-07-30T04:06:53;16.20;99.90
17236;DHT22;8734;59.272;17.780;2023-07-30T04:09:21;16.30;99.90
17236;DHT22;8734;59.272;17.780;2023-07-30T04:11:49;16.40;99.90
17236;DHT22;8734;59.272;17.780;2023-07-30T04:14:20;16.50;99.90
17236;DHT22;8734;59.272;17.780;2023-07-30T04:16:48;16.60;99.90
17236;DHT22;8734;59.272;17.780;2023-07-30T04:19:17;16.60;99.90
17236;DHT22;8734;59.272;17.780;2023-07-30T04:21:45;16.60;99.90
17236;DHT22;8734;59.272;17.780;2023-07-30T04:24:13;16.70;99.90
17236;DHT22;8734;59.272;17.780;2023-07-30T04:26:42;16.70;99.90
17236;DHT22;8734;59.272;17.780;2023-07-30T04:29:10;16.70;99.90
17236;DHT22;8734;59.272;17.780;2023-07-30T04:31:41;16.60;99.90
17236;DHT22;8734;59.272;17.780;2023-07-30T04:34:10;16.60;99.90
17236;DHT22;8734;59.272;17.780;2023-07-30T04:36:38;16.70;99.90
17236;DHT22;8734;59.272;17.780;2023-07-30T04:39:06;16.70;99.90
17236;DHT22;8734;59.272;17.780;2023-07-30T04:41:35;16.70;99.90
17236;DHT22;8734;59.272;17.780;2023-07-30T04:44:04;16.70;99.90
17236;DHT22;8734;59.272;17.780;2023-07-30T04:46:32;16.70;99.90
17236;DHT22;8734;59.272;17.780;2023-07-30T04:49:03;16.90;99.90
17236;DHT22;8734;59.272;17.780;2023-07-30T04:51:32;16.90;99.90
17236;DHT22;8734;59.272;17.780;2023-07-30T04:54:00;17.00;99.90
17236;DHT22;8734;59.272;17.780;2023-07-30T04:56:28;17.10;99.90
17236;DHT22;8734;59.272;17.780;2023-07-30T04:58:56;17.10;99.90
17236;DHT22;8734;59.272;17.780;2023-07-30T05:01:25;17.00;99.90
17236;DHT22;8734;59.272;17.780;2023-07-30T05:03:53;16.90;99.90
17236;DHT22;8734;59.272;17.780;2023-07-30T05:06:23;16.90;99.90
17236;DHT22;8734;59.272;17.780;2023-07-30T05:08:51;16.90;99.90
17236;DHT22;8734;59.272;17.780;2023-07-30T05:11:21;16.90;99.90
17236;DHT22;8734;59.272;17.780;2023-07-30T05:13:50;17.00;99.90
17236;DHT22;8734;59.272;17.780;2023-07-30T05:16:18;17.00;99.90
17236;DHT22;8734;59.272;17.780;2023-07-30T05:18:47;17.10;99.90
17236;DHT22;8734;59.272;17.780;2023-07-30T05:21:15;17.10;99.90
17236;DHT22;8734;59.272;17.780;2023-07-30T05:23:44;17.20;99.90
17236;DHT22;8734;59.272;17.780;2023-07-30T05:26:13;17.30;99.90
17236;DHT22;8734;59.272;17.780;2023-07-30T05:28:41;17.40;99.90
17236;DHT22;8734;59.272;17.780;2023-07-30T05:31:09;17.40;99.90
17236;DHT22;8734;59.272;17.780;2023-07-30T05:33:37;17.50;99.90
17236;DHT22;8734;59.272;17.780;2023-07-30T05:36:06;17.50;99.90
17236;DHT22;8734;59.272;17.780;2023-07-30T05:38:34;17.40;99.90
17236;DHT22;8734;59.272;17.780;2023-07-30T05:41:04;17.40;99.90
17236;DHT22;8734;59.272;17.780;2023-07-30T05:43:32;17.40;99.90
17236;DHT22;8734;59.272;17.780;2023-07-30T05:46:00;17.50;99.90
17236;DHT22;8734;59.272;17.780;2023-07-30T05:48:29;17.60;99.90
17236;DHT22;8734;59.272;17.780;2023-07-30T05:50:57;17.50;99.90
17236;DHT22;8734;59.272;17.780;2023-07-30T05:53:26;17.60;99.90
17236;DHT22;8734;59.272;17.780;2023-07-30T05:55:54;17.50;99.90
17236;DHT22;8734;59.272;17.780;2023-07-30T05:58:24;17.40;99.90
17236;DHT22;8734;59.272;17.780;2023-07-30T06:00:52;17.40;99.90
17236;DHT22;8734;59.272;17.780;2023-07-30T06:03:20;17.50;99.90
17236;DHT22;8734;59.272;17.780;2023-07-30T06:05:49;17.60;99.90
17236;DHT22;8734;59.272;17.780;2023-07-30T06:08:17;17.50;99.90
17236;DHT22;8734;59.272;17.780;2023-07-30T06:10:45;17.60;99.90
17236;DHT22;8734;59.272;17.780;2023-07-30T06:13:14;17.70;99.90
17236;DHT22;8734;59.272;17.780;2023-07-30T06:15:43;17.70;99.90
17236;DHT22;8734;59.272;17.780;2023-07-30T06:18:12;17.80;99.90
17236;DHT22;8734;59.272;17.780;2023-07-30T06:20:40;17.80;99.90
17236;DHT22;8734;59.272;17.780;2023-07-30T06:23:08;17.80;99.90
17236;DHT22;8734;59.272;17.780;2023-07-30T06:25:37;17.90;99.90
17236;DHT22;8734;59.272;17.780;2023-07-30T06:28:05;17.80;99.90
17236;DHT22;8734;59.272;17.780;2023-07-30T06:30:33;17.70;99.90
17236;DHT22;8734;59.272;17.780;2023-07-30T06:33:05;17.70;99.90
17236;DHT22;8734;59.272;17.780;2023-07-30T06:35:33;17.90;99.90
17236;DHT22;8734;59.272;17.780;2023-07-30T06:38:01;17.90;99.90
17236;DHT22;8734;59.272;17.780;2023-07-30T06:40:30;18.00;99.90
17236;DHT22;8734;59.272;17.780;2023-07-30T06:42:58;18.10;99.90
17236;DHT22;8734;59.272;17.780;2023-07-30T06:45:26;18.10;99.90
17236;DHT22;8734;59.272;17.780;2023-07-30T06:47:54;18.10;99.90
17236;DHT22;8734;59.272;17.780;2023-07-30T06:50:24;18.10;99.90
17236;DHT22;8734;59.272;17.780;2023-07-30T06:52:53;18.20;99.90
17236;DHT22;8734;59.272;17.780;2023-07-30T06:55:21;18.40;99.90
17236;DHT22;8734;59.272;17.780;2023-07-30T06:57:49;18.30;99.90
17236;DHT22;8734;59.272;17.780;2023-07-30T07:00:18;18.20;99.90
17236;DHT22;8734;59.272;17.780;2023-07-30T07:02:49;18.20;99.90
17236;DHT22;8734;59.272;17.780;2023-07-30T07:05:17;18.20;99.90
17236;DHT22;8734;59.272;17.780;2023-07-30T07:07:48;18.20;99.90
17236;DHT22;8734;59.272;17.780;2023-07-30T07:10:17;18.30;99.90
17236;DHT22;8734;59.272;17.780;2023-07-30T07:12:45;18.30;99.90
17236;DHT22;8734;59.272;17.780;2023-07-30T07:15:14;18.30;99.90
17236;DHT22;8734;59.272;17.780;2023-07-30T07:17:42;18.40;99.90
17236;DHT22;8734;59.272;17.780;2023-07-30T07:20:10;18.50;99.90
17236;DHT22;8734;59.272;17.780;2023-07-30T07:22:39;18.70;99.90
17236;DHT22;8734;59.272;17.780;2023-07-30T07:25:09;19.10;99.90
17236;DHT22;8734;59.272;17.780;2023-07-30T07:27:37;19.40;99.90
17236;DHT22;8734;59.272;17.780;2023-07-30T07:30:07;19.60;99.90
17236;DHT22;8734;59.272;17.780;2023-07-30T07:32:35;19.70;99.90
17236;DHT22;8734;59.272;17.780;2023-07-30T07:35:06;19.90;99.90
17236;DHT22;8734;59.272;17.780;2023-07-30T07:37:35;20.00;99.90
17236;DHT22;8734;59.272;17.780;2023-07-30T07:40:04;20.50;99.90
17236;DHT22;8734;59.272;17.780;2023-07-30T07:42:34;21.10;99.90
17236;DHT22;8734;59.272;17.780;2023-07-30T07:45:03;21.60;99.90
17236;DHT22;8734;59.272;17.780;2023-07-30T07:47:31;22.00;99.90
17236;DHT22;8734;59.272;17.780;2023-07-30T07:50:00;21.90;99.90
17236;DHT22;8734;59.272;17.780;2023-07-30T07:52:28;21.80;99.90
17236;DHT22;8734;59.272;17.780;2023-07-30T07:54:56;21.50;99.90
17236;DHT22;8734;59.272;17.780;2023-07-30T07:57:24;21.70;99.90
17236;DHT22;8734;59.272;17.780;2023-07-30T07:59:54;21.90;99.90
17236;DHT22;8734;59.272;17.780;2023-07-30T08:02:22;21.60;99.90
17236;DHT22;8734;59.272;17.780;2023-07-30T08:04:51;21.60;99.90
17236;DHT22;8734;59.272;17.780;2023-07-30T08:07:20;21.70;99.90
17236;DHT22;8734;59.272;17.780;2023-07-30T08:09:48;21.80;99.90
17236;DHT22;8734;59.272;17.780;2023-07-30T08:12:19;22.20;99.90
17236;DHT22;8734;59.272;17.780;2023-07-30T08:14:47;22.70;99.90
17236;DHT22;8734;59.272;17.780;2023-07-30T08:17:17;23.20;99.90
17236;DHT22;8734;59.272;17.780;2023-07-30T08:19:46;23.30;99.90
17236;DHT22;8734;59.272;17.780;2023-07-30T08:22:14;23.70;99.90
17236;DHT22;8734;59.272;17.780;2023-07-30T08:24:42;24.20;99.90
17236;DHT22;8734;59.272;17.780;2023-07-30T08:27:10;24.30;99.90
17236;DHT22;8734;59.272;17.780;2023-07-30T08:29:39;24.40;99.90
17236;DHT22;8734;59.272;17.780;2023-07-30T08:32:07;24.80;99.90
17236;DHT22;8734;59.272;17.780;2023-07-30T08:34:37;25.30;99.90
17236;DHT22;8734;59.272;17.780;2023-07-30T08:37:05;25.50;99.90
17236;DHT22;8734;59.272;17.780;2023-07-30T08:39:33;25.40;99.90
17236;DHT22;8734;59.272;17.780;2023-07-30T08:42:02;25.20;99.90
17236;DHT22;8734;59.272;17.780;2023-07-30T08:44:31;24.80;99.90
17236;DHT22;8734;59.272;17.780;2023-07-30T08:46:59;24.80;99.90
17236;DHT22;8734;59.272;17.780;2023-07-30T08:49:28;24.60;99.90
17236;DHT22;8734;59.272;17.780;2023-07-30T08:52:02;24.60;99.90
17236;DHT22;8734;59.272;17.780;2023-07-30T08:54:31;24.60;99.90
17236;DHT22;8734;59.272;17.780;2023-07-30T08:57:00;24.20;99.90
17236;DHT22;8734;59.272;17.780;2023-07-30T08:59:33;24.10;99.90
17236;DHT22;8734;59.272;17.780;2023-07-30T09:02:02;24.00;99.90
17236;DHT22;8734;59.272;17.780;2023-07-30T09:04:33;24.10;99.90
17236;DHT22;8734;59.272;17.780;2023-07-30T09:07:04;24.20;99.90
17236;DHT22;8734;59.272;17.780;2023-07-30T09:09:37;24.30;99.90
17236;DHT22;8734;59.272;17.780;2023-07-30T09:12:13;24.40;99.90
17236;DHT22;8734;59.272;17.780;2023-07-30T09:14:42;24.30;99.90
17236;DHT22;8734;59.272;17.780;2023-07-30T09:17:16;24.50;99.90
17236;DHT22;8734;59.272;17.780;2023-07-30T09:19:45;24.70;99.90
17236;DHT22;8734;59.272;17.780;2023-07-30T09:22:20;24.80;99.90
17236;DHT22;8734;59.272;17.780;2023-07-30T09:24:48;24.40;99.90
17236;DHT22;8734;59.272;17.780;2023-07-30T09:27:20;24.20;99.90
17236;DHT22;8734;59.272;17.780;2023-07-30T09:29:53;24.20;99.90
17236;DHT22;8734;59.272;17.780;2023-07-30T09:32:26;24.40;99.90
17236;DHT22;8734;59.272;17.780;2023-07-30T09:34:54;24.60;99.90
17236;DHT22;8734;59.272;17.780;2023-07-30T09:37:24;24.60;99.90
17236;DHT22;8734;59.272;17.780;2023-07-30T09:39:53;24.20;99.90
17236;DHT22;8734;59.272;17.780;2023-07-30T09:42:26;24.00;99.90
17236;DHT22;8734;59.272;17.780;2023-07-30T09:44:58;24.10;99.90
17236;DHT22;8734;59.272;17.780;2023-07-30T09:47:27;24.20;99.90
17236;DHT22;8734;59.272;17.780;2023-07-30T09:49:58;23.80;99.90
17236;DHT22;8734;59.272;17.780;2023-07-30T09:52:28;23.70;99.90
17236;DHT22;8734;59.272;17.780;2023-07-30T09:54:58;23.50;99.90
17236;DHT22;8734;59.272;17.780;2023-07-30T09:57:26;23.90;99.90
17236;DHT22;8734;59.272;17.780;2023-07-30T09:59:54;24.00;99.90
17236;DHT22;8734;59.272;17.780;2023-07-30T10:02:24;24.10;99.90
17236;DHT22;8734;59.272;17.780;2023-07-30T10:04:54;24.20;99.90
17236;DHT22;8734;59.272;17.780;2023-07-30T10:07:27;24.60;99.90
17236;DHT22;8734;59.272;17.780;2023-07-30T10:09:59;24.70;99.90
17236;DHT22;8734;59.272;17.780;2023-07-30T10:12:31;24.30;99.90
17236;DHT22;8734;59.272;17.780;2023-07-30T10:15:01;24.10;99.90
17236;DHT22;8734;59.272;17.780;2023-07-30T10:17:32;24.00;99.90
17236;DHT22;8734;59.272;17.780;2023-07-30T10:20:21;24.00;99.90
17236;DHT22;8734;59.272;17.780;2023-07-30T10:22:55;24.40;99.90
17236;DHT22;8734;59.272;17.780;2023-07-30T10:25:28;24.80;99.90
17236;DHT22;8734;59.272;17.780;2023-07-30T10:27:58;25.00;99.90
17236;DHT22;8734;59.272;17.780;2023-07-30T10:30:31;24.80;99.90
17236;DHT22;8734;59.272;17.780;2023-07-30T10:33:01;24.80;99.90
17236;DHT22;8734;59.272;17.780;2023-07-30T10:35:41;25.00;99.90
17236;DHT22;8734;59.272;17.780;2023-07-30T10:38:15;25.70;99.90
17236;DHT22;8734;59.272;17.780;2023-07-30T10:41:03;25.70;99.90
17236;DHT22;8734;59.272;17.780;2023-07-30T10:43:35;25.00;99.90
17236;DHT22;8734;59.272;17.780;2023-07-30T10:46:03;24.60;99.90
17236;DHT22;8734;59.272;17.780;2023-07-30T10:48:33;24.50;99.90
17236;DHT22;8734;59.272;17.780;2023-07-30T10:51:04;24.50;99.90
17236;DHT22;8734;59.272;17.780;2023-07-30T10:53:35;24.60;99.90
17236;DHT22;8734;59.272;17.780;2023-07-30T10:56:05;24.70;99.90
17236;DHT22;8734;59.272;17.780;2023-07-30T10:58:34;24.60;99.90
17236;DHT22;8734;59.272;17.780;2023-07-30T11:01:03;24.50;99.90
17236;DHT22;8734;59.272;17.780;2023-07-30T11:03:32;24.60;99.90
17236;DHT22;8734;59.272;17.780;2023-07-30T11:06:01;24.20;99.90
17236;DHT22;8734;59.272;17.780;2023-07-30T11:08:35;24.30;99.90
17236;DHT22;8734;59.272;17.780;2023-07-30T11:11:05;24.50;99.90
17236;DHT22;8734;59.272;17.780;2023-07-30T11:13:37;24.20;99.90
17236;DHT22;8734;59.272;17.780;2023-07-30T11:16:06;24.20;99.90
17236;DHT22;8734;59.272;17.780;2023-07-30T11:18:35;24.40;99.90
17236;DHT22;8734;59.272;17.780;2023-07-30T11:21:04;24.60;99.90
17236;DHT22;8734;59.272;17.780;2023-07-30T11:23:35;25.20;99.90
17236;DHT22;8734;59.272;17.780;2023-07-30T11:26:06;25.40;99.90
17236;DHT22;8734;59.272;17.780;2023-07-30T11:28:36;25.20;99.90
17236;DHT22;8734;59.272;17.780;2023-07-30T11:31:06;25.30;99.90
17236;DHT22;8734;59.272;17.780;2023-07-30T11:33:35;25.70;99.90
17236;DHT22;8734;59.272;17.780;2023-07-30T11:36:06;25.60;99.90
17236;DHT22;8734;59.272;17.780;2023-07-30T11:38:38;25.70;99.90
17236;DHT22;8734;59.272;17.780;2023-07-30T11:41:07;25.40;99.90
17236;DHT22;8734;59.272;17.780;2023-07-30T11:43:38;25.50;99.90
17236;DHT22;8734;59.272;17.780;2023-07-30T11:46:11;25.60;99.90
17236;DHT22;8734;59.272;17.780;2023-07-30T11:48:41;25.80;99.90
17236;DHT22;8734;59.272;17.780;2023-07-30T11:51:19;25.70;99.90
17236;DHT22;8734;59.272;17.780;2023-07-30T11:53:50;25.50;99.90
17236;DHT22;8734;59.272;17.780;2023-07-30T11:56:20;25.40;99.90
17236;DHT22;8734;59.272;17.780;2023-07-30T11:58:51;24.70;99.90
17236;DHT22;8734;59.272;17.780;2023-07-30T12:01:19;23.50;99.90
17236;DHT22;8734;59.272;17.780;2023-07-30T12:03:48;22.90;99.90
17236;DHT22;8734;59.272;17.780;2023-07-30T12:06:16;22.40;99.90
17236;DHT22;8734;59.272;17.780;2023-07-30T12:08:44;22.00;99.90
17236;DHT22;8734;59.272;17.780;2023-07-30T12:11:18;21.70;99.90
17236;DHT22;8734;59.272;17.780;2023-07-30T12:13:46;21.40;99.90
17236;DHT22;8734;59.272;17.780;2023-07-30T12:16:17;21.10;99.90
17236;DHT22;8734;59.272;17.780;2023-07-30T12:18:48;20.80;99.90
17236;DHT22;8734;59.272;17.780;2023-07-30T12:21:16;20.50;99.90
17236;DHT22;8734;59.272;17.780;2023-07-30T12:23:44;20.20;99.90
17236;DHT22;8734;59.272;17.780;2023-07-30T12:26:13;19.90;99.90
17236;DHT22;8734;59.272;17.780;2023-07-30T12:28:43;19.70;99.90
17236;DHT22;8734;59.272;17.780;2023-07-30T12:31:11;19.50;99.90
17236;DHT22;8734;59.272;17.780;2023-07-30T12:33:39;19.50;99.90
17236;DHT22;8734;59.272;17.780;2023-07-30T12:36:07;19.50;99.90
17236;DHT22;8734;59.272;17.780;2023-07-30T12:38:36;19.60;99.90
17236;DHT22;8734;59.272;17.780;2023-07-30T12:41:04;19.70;99.90
17236;DHT22;8734;59.272;17.780;2023-07-30T12:43:32;19.70;99.90
17236;DHT22;8734;59.272;17.780;2023-07-30T12:46:02;19.60;99.90
17236;DHT22;8734;59.272;17.780;2023-07-30T12:48:30;19.60;99.90
17236;DHT22;8734;59.272;17.780;2023-07-30T12:50:59;19.50;99.90
17236;DHT22;8734;59.272;17.780;2023-07-30T12:53:27;19.40;99.90
17236;DHT22;8734;59.272;17.780;2023-07-30T12:55:56;19.40;99.90
17236;DHT22;8734;59.272;17.780;2023-07-30T12:58:24;19.40;99.90
17236;DHT22;8734;59.272;17.780;2023-07-30T13:00:52;19.30;99.90
17236;DHT22;8734;59.272;17.780;2023-07-30T13:03:22;19.20;99.90
17236;DHT22;8734;59.272;17.780;2023-07-30T13:05:50;19.10;99.90
17236;DHT22;8734;59.272;17.780;2023-07-30T13:08:19;19.10;99.90
17236;DHT22;8734;59.272;17.780;2023-07-30T13:10:47;19.10;99.90
17236;DHT22;8734;59.272;17.780;2023-07-30T13:13:15;19.20;99.90
17236;DHT22;8734;59.272;17.780;2023-07-30T13:15:43;19.60;99.90
17236;DHT22;8734;59.272;17.780;2023-07-30T13:18:12;19.80;99.90
17236;DHT22;8734;59.272;17.780;2023-07-30T13:20:41;20.20;99.90
17236;DHT22;8734;59.272;17.780;2023-07-30T13:23:09;20.40;99.90
17236;DHT22;8734;59.272;17.780;2023-07-30T13:25:38;20.70;99.90
17236;DHT22;8734;59.272;17.780;2023-07-30T13:28:06;21.00;99.90
17236;DHT22;8734;59.272;17.780;2023-07-30T13:30:34;21.10;99.90
17236;DHT22;8734;59.272;17.780;2023-07-30T13:33:03;21.50;99.90
17236;DHT22;8734;59.272;17.780;2023-07-30T13:35:31;21.70;99.90
17236;DHT22;8734;59.272;17.780;2023-07-30T13:38:01;22.20;99.90
17236;DHT22;8734;59.272;17.780;2023-07-30T13:40:29;22.40;99.90
17236;DHT22;8734;59.272;17.780;2023-07-30T13:42:57;22.40;99.90
17236;DHT22;8734;59.272;17.780;2023-07-30T13:45:25;22.40;99.90
17236;DHT22;8734;59.272;17.780;2023-07-30T13:47:54;22.30;99.90
17236;DHT22;8734;59.272;17.780;2023-07-30T13:50:23;22.30;99.90
17236;DHT22;8734;59.272;17.780;2023-07-30T13:52:51;22.10;99.90
17236;DHT22;8734;59.272;17.780;2023-07-30T13:55:21;21.60;99.90
17236;DHT22;8734;59.272;17.780;2023-07-30T13:57:49;21.50;99.90
17236;DHT22;8734;59.272;17.780;2023-07-30T14:00:17;21.30;99.90
17236;DHT22;8734;59.272;17.780;2023-07-30T14:02:46;21.30;99.90
17236;DHT22;8734;59.272;17.780;2023-07-30T14:05:15;21.30;99.90
17236;DHT22;8734;59.272;17.780;2023-07-30T14:07:43;21.50;99.90
17236;DHT22;8734;59.272;17.780;2023-07-30T14:10:12;21.70;99.90
17236;DHT22;8734;59.272;17.780;2023-07-30T14:12:42;21.70;99.90
17236;DHT22;8734;59.272;17.780;2023-07-30T14:15:10;21.90;99.90
17236;DHT22;8734;59.272;17.780;2023-07-30T14:17:38;22.10;99.90
17236;DHT22;8734;59.272;17.780;2023-07-30T14:20:07;22.60;99.90
17236;DHT22;8734;59.272;17.780;2023-07-30T14:22:36;22.80;99.90
17236;DHT22;8734;59.272;17.780;2023-07-30T14:25:05;23.00;99.90
17236;DHT22;8734;59.272;17.780;2023-07-30T14:27:33;23.20;99.90
17236;DHT22;8734;59.272;17.780;2023-07-30T14:30:04;23.30;99.90
17236;DHT22;8734;59.272;17.780;2023-07-30T14:32:33;23.50;99.90
17236;DHT22;8734;59.272;17.780;2023-07-30T14:35:01;23.40;99.90
17236;DHT22;8734;59.272;17.780;2023-07-30T14:37:29;23.40;99.90
17236;DHT22;8734;59.272;17.780;2023-07-30T14:39:57;23.20;99.90
17236;DHT22;8734;59.272;17.780;2023-07-30T14:42:26;22.90;99.90
17236;DHT22;8734;59.272;17.780;2023-07-30T14:44:54;22.60;99.90
17236;DHT22;8734;59.272;17.780;2023-07-30T14:47:23;22.40;99.90
17236;DHT22;8734;59.272;17.780;2023-07-30T14:49:52;22.60;99.90
17236;DHT22;8734;59.272;17.780;2023-07-30T14:52:20;22.90;99.90
17236;DHT22;8734;59.272;17.780;2023-07-30T14:54:48;23.10;99.90
17236;DHT22;8734;59.272;17.780;2023-07-30T14:57:16;23.30;99.90
17236;DHT22;8734;59.272;17.780;2023-07-30T14:59:45;23.00;99.90
17236;DHT22;8734;59.272;17.780;2023-07-30T15:02:14;22.70;99.90
17236;DHT22;8734;59.272;17.780;2023-07-30T15:04:43;22.60;99.90
17236;DHT22;8734;59.272;17.780;2023-07-30T15:07:11;22.50;99.90
17236;DHT22;8734;59.272;17.780;2023-07-30T15:09:39;22.40;99.90
17236;DHT22;8734;59.272;17.780;2023-07-30T15:12:07;22.40;99.90
17236;DHT22;8734;59.272;17.780;2023-07-30T15:14:36;22.30;99.90
17236;DHT22;8734;59.272;17.780;2023-07-30T15:17:04;22.30;99.90
17236;DHT22;8734;59.272;17.780;2023-07-30T15:19:33;22.20;99.90
17236;DHT22;8734;59.272;17.780;2023-07-30T15:22:03;22.10;99.90
17236;DHT22;8734;59.272;17.780;2023-07-30T15:24:32;22.10;99.90
17236;DHT22;8734;59.272;17.780;2023-07-30T15:27:04;22.00;99.90
17236;DHT22;8734;59.272;17.780;2023-07-30T15:29:32;22.00;99.90
17236;DHT22;8734;59.272;17.780;2023-07-30T15:32:02;21.90;99.90
17236;DHT22;8734;59.272;17.780;2023-07-30T15:34:30;21.90;99.90
17236;DHT22;8734;59.272;17.780;2023-07-30T15:36:59;21.80;99.90
17236;DHT22;8734;59.272;17.780;2023-07-30T15:39:30;21.80;99.90
17236;DHT22;8734;59.272;17.780;2023-07-30T15:42:01;21.60;99.90